This is the latest recevied weather packets stored in our database for station/object EA4BHK-10. If no packets are shown the sender has not sent any weather packets the latest 10 day(s).
| Time | Temp. | Humidity | Pressure | Rain* | Wind** | Luminosity | Snow |
|---|---|---|---|---|---|---|---|
| 1777672370 | 13.33° C | 68% | 1023.7 hPa | - | - | - | - |
| 1777671470 | 13.33° C | 67% | 1023.6 hPa | - | - | - | - |
| 1777670577 | 13.89° C | 65% | 1023.4 hPa | - | - | - | - |
| 1777669670 | 13.89° C | 64% | 1023.3 hPa | - | - | - | - |
| 1777668770 | 13.89° C | 64% | 1023.4 hPa | - | - | - | - |
| 1777667870 | 14.44° C | 63% | 1023.3 hPa | - | - | - | - |
| 1777666970 | 14.44° C | 61% | 1023 hPa | - | - | - | - |
| 1777665768 | 15° C | 57% | 1022.5 hPa | - | - | - | - |
| 1777664868 | 15° C | 55% | 1022.5 hPa | - | - | - | - |
| 1777663968 | 15.56° C | 55% | 1022.2 hPa | - | - | - | - |
| 1777663068 | 15.56° C | 54% | 1021.8 hPa | - | - | - | - |
| 1777662169 | 16.11° C | 55% | 1021.4 hPa | - | - | - | - |
| 1777661268 | 16.67° C | 56% | 1021 hPa | - | - | - | - |
| 1777660371 | 17.22° C | 54% | 1020.5 hPa | - | - | - | - |
| 1777659468 | 17.78° C | 51% | 1019.8 hPa | - | - | - | - |
| 1777658570 | 20.56° C | 48% | 1018.5 hPa | - | - | - | - |
| 1777620711 | 23.89° C | 49% | 1015 hPa | - | - | - | - |
| 1777620142 | 24.44° C | 48% | 1015 hPa | - | - | - | - |
| 1777303584 | 26.11° C | 9% | 1011.5 hPa | - | - | - | - |
| 1777302983 | 26.11° C | 8% | 1011.5 hPa | - | - | - | - |
| 1777302384 | 26.11° C | 9% | 1011.7 hPa | - | - | - | - |
| 1777301779 | 26.11° C | 9% | 1011.9 hPa | - | - | - | - |
| 1777301179 | 26.67° C | 10% | 1011.7 hPa | - | - | - | - |
| 1777300579 | 26.67° C | 9% | 1011.8 hPa | - | - | - | - |
| 1777299979 | 27.22° C | 9% | 1011.8 hPa | - | - | - | - |
* Rain since midnight (hover to see other rain measurements)
** Current wind speed in m/s (hover to see current wind gust speed)